Time;durP1;ratioP1;P1;durP2;ratioP2;P2;SDS_P1;SDS_P2;PMS_P1;PMS_P2;Temp;Humidity;BMP_temperature;BMP_pressure;BME280_temperature;BME280_humidity;BME280_pressure;Samples;Min_cycle;Max_cycle;Signal;HPM_P1;HPM_P2
2022/07/03 00:01:38;;;;;;;11.75;2.00;;;43.20;20.70;;;;;;4949602;28;20039;-65
2022/07/03 00:04:04;;;;;;;11.32;1.90;;;43.30;20.30;;;;;;4948137;28;20044;-65
2022/07/03 00:06:33;;;;;;;13.00;1.90;;;43.30;19.50;;;;;;4933901;29;20809;-64
2022/07/03 00:09:02;;;;;;;19.10;2.35;;;43.20;19.20;;;;;;4949645;28;20078;-65
2022/07/03 00:11:28;;;;;;;13.80;1.80;;;43.20;19.60;;;;;;4949040;28;20047;-64
2022/07/03 00:13:55;;;;;;;10.57;1.60;;;43.10;19.90;;;;;;4948985;29;20468;-67
2022/07/03 00:16:21;;;;;;;7.10;1.52;;;42.90;19.70;;;;;;4948724;28;20039;-63
2022/07/03 00:18:48;;;;;;;16.83;1.42;;;42.70;19.30;;;;;;4949572;28;20398;-65
2022/07/03 00:21:31;;;;;;;10.70;1.50;;;42.70;19.40;;;;;;4950167;28;20031;-65
2022/07/03 00:24:04;;;;;;;17.48;2.00;;;42.70;19.40;;;;;;4948830;29;20051;-64
2022/07/03 00:26:34;;;;;;;15.70;2.17;;;42.50;19.40;;;;;;4950244;28;20129;-68
2022/07/03 00:29:01;;;;;;;7.70;1.58;;;42.50;19.80;;;;;;4947949;29;20057;-65
2022/07/03 00:31:33;;;;;;;5.57;1.30;;;42.60;19.20;;;;;;4948837;28;20053;-65
2022/07/03 00:34:01;;;;;;;4.45;1.45;;;42.50;18.80;;;;;;4918267;29;20057;-64
2022/07/03 00:36:38;;;;;;;9.93;1.50;;;42.30;17.70;;;;;;4949316;29;20086;-67
2022/07/03 00:39:05;;;;;;;4.43;1.10;;;42.30;18.40;;;;;;4949275;28;20039;-63
2022/07/03 00:41:34;;;;;;;4.32;1.45;;;42.30;19.00;;;;;;4951712;28;20049;-63
2022/07/03 00:44:01;;;;;;;5.90;1.33;;;42.20;18.40;;;;;;4952863;28;20147;-66
2022/07/03 00:46:28;;;;;;;10.77;2.42;;;42.30;19.40;;;;;;4952458;28;20065;-67
2022/07/03 00:49:00;;;;;;;8.35;2.50;;;42.30;19.60;;;;;;4953589;28;20052;-65
2022/07/03 00:51:29;;;;;;;17.30;3.25;;;42.30;20.60;;;;;;4953146;28;20044;-63
2022/07/03 00:53:59;;;;;;;15.77;2.65;;;42.20;21.50;;;;;;4951287;28;20068;-64
2022/07/03 00:56:28;;;;;;;12.38;2.13;;;42.00;21.90;;;;;;4952214;29;20531;-65
2022/07/03 00:58:57;;;;;;;11.93;2.25;;;41.90;20.80;;;;;;4952300;28;20057;-64
2022/07/03 01:01:31;;;;;;;13.80;2.40;;;41.40;35.20;;;;;;4936430;29;20576;-63
2022/07/03 01:04:23;;;;;;;13.93;2.13;;;41.70;21.20;;;;;;4937360;29;20481;-64
2022/07/03 01:07:12;;;;;;;14.48;1.40;;;41.60;20.30;;;;;;4952386;29;20053;-64
2022/07/03 01:10:06;;;;;;;6.40;1.33;;;41.50;19.30;;;;;;4951929;29;20429;-66
2022/07/03 01:12:54;;;;;;;10.48;2.15;;;41.50;19.80;;;;;;4951538;29;20079;-64
2022/07/03 01:15:23;;;;;;;14.57;1.65;;;41.40;20.20;;;;;;4950790;29;20527;-67
2022/07/03 01:18:03;;;;;;;14.93;2.08;;;41.30;20.30;;;;;;4952264;28;20438;-65
2022/07/03 01:20:32;;;;;;;10.38;1.95;;;41.20;20.60;;;;;;4952417;28;20105;-63
2022/07/03 01:23:00;;;;;;;11.10;2.05;;;41.10;20.70;;;;;;4952201;28;20054;-64
2022/07/03 01:25:49;;;;;;;12.07;1.88;;;41.00;20.50;;;;;;4953586;29;20058;-62
2022/07/03 01:28:18;;;;;;;13.55;1.75;;;40.80;20.60;;;;;;4954644;28;20044;-65
2022/07/03 01:30:48;;;;;;;13.15;1.70;;;40.60;20.50;;;;;;4951787;28;20085;-66
2022/07/03 01:33:22;;;;;;;6.68;1.58;;;40.50;20.00;;;;;;4952049;28;20064;-64
2022/07/03 01:35:58;;;;;;;21.15;2.70;;;40.50;20.40;;;;;;4934746;29;20075;-63
2022/07/03 01:38:28;;;;;;;20.80;2.25;;;40.40;21.10;;;;;;4954487;28;20406;-62
2022/07/03 01:40:56;;;;;;;13.00;2.80;;;40.20;21.20;;;;;;4952245;28;20415;-64
2022/07/03 01:43:32;;;;;;;10.98;2.17;;;40.20;20.80;;;;;;4951933;28;20065;-66
2022/07/03 01:46:01;;;;;;;11.13;2.90;;;40.00;21.50;;;;;;4951164;29;20052;-64
2022/07/03 01:48:29;;;;;;;15.75;2.15;;;39.90;21.60;;;;;;4951964;28;20054;-65
2022/07/03 01:50:57;;;;;;;12.48;2.53;;;39.90;21.50;;;;;;4953341;28;20160;-62
2022/07/03 01:53:29;;;;;;;6.70;2.20;;;39.80;22.00;;;;;;4949873;28;20080;-65
2022/07/03 01:55:57;;;;;;;13.80;2.28;;;39.60;22.10;;;;;;4964114;28;20171;-63
2022/07/03 01:58:24;;;;;;;14.48;2.08;;;39.50;22.40;;;;;;4951729;28;20132;-61
2022/07/03 02:00:57;;;;;;;8.82;1.92;;;39.50;22.70;;;;;;4952683;29;20097;-63
2022/07/03 02:03:28;;;;;;;17.42;2.50;;;39.40;22.60;;;;;;4951641;29;20063;-65
2022/07/03 02:06:26;;;;;;;29.85;2.97;;;39.20;22.90;;;;;;4951112;29;20471;-64
2022/07/03 02:09:04;;;;;;;15.73;2.10;;;39.00;23.20;;;;;;4950015;29;20151;-63
2022/07/03 02:11:43;;;;;;;22.10;3.30;;;38.80;23.60;;;;;;4952500;28;20063;-65
2022/07/03 02:14:16;;;;;;;18.55;3.05;;;38.70;24.00;;;;;;4951755;29;20076;-64
2022/07/03 02:17:07;;;;;;;16.73;2.78;;;38.50;24.10;;;;;;4952657;29;20114;-65
2022/07/03 02:20:07;;;;;;;22.10;2.78;;;38.30;24.30;;;;;;4952438;29;20486;-63
2022/07/03 02:22:40;;;;;;;13.05;2.30;;;38.20;24.40;;;;;;4897140;29;20582;-62
2022/07/03 02:25:13;;;;;;;15.13;2.40;;;38.10;24.70;;;;;;4913189;29;20106;-66
2022/07/03 02:27:46;;;;;;;16.08;2.17;;;37.90;24.80;;;;;;4912876;29;20480;-62
2022/07/03 02:30:13;;;;;;;14.43;3.15;;;37.90;24.70;;;;;;4897452;29;20511;-63
2022/07/03 02:32:50;;;;;;;17.35;2.17;;;37.90;24.90;;;;;;4898920;29;20572;-62
2022/07/03 02:35:26;;;;;;;24.85;2.67;;;37.70;24.90;;;;;;4912930;29;20632;-63
2022/07/03 02:38:21;;;;;;;14.38;2.50;;;37.60;24.70;;;;;;4896791;28;20500;-64
2022/07/03 02:41:08;;;;;;;12.48;2.53;;;37.60;24.50;;;;;;4912695;29;20079;-66
2022/07/03 02:43:47;;;;;;;15.82;2.45;;;37.50;24.40;;;;;;4896939;29;21620;-63
2022/07/03 02:49:31;;;;;;;11.80;2.30;;;37.30;24.40;;;;;;4911074;29;20085;-62
2022/07/03 02:52:06;;;;;;;20.25;2.60;;;37.20;24.50;;;;;;4896662;29;20186;-62
2022/07/03 02:54:42;;;;;;;21.17;2.65;;;37.10;24.60;;;;;;4895940;29;20084;-63
2022/07/03 02:57:09;;;;;;;21.40;3.00;;;37.00;25.30;;;;;;4897811;29;20165;-64
2022/07/03 02:59:55;;;;;;;12.95;2.05;;;36.90;25.40;;;;;;4951167;29;20132;-62
2022/07/03 03:02:49;;;;;;;12.30;2.50;;;36.80;24.80;;;;;;4951603;28;20084;-61
2022/07/03 03:05:46;;;;;;;18.38;2.83;;;36.70;24.80;;;;;;4950209;29;20504;-62
2022/07/03 03:08:35;;;;;;;24.95;2.17;;;36.60;25.00;;;;;;4950682;28;20085;-63
2022/07/03 03:11:16;;;;;;;15.23;2.22;;;36.50;25.00;;;;;;4951093;28;20165;-63
2022/07/03 03:13:49;;;;;;;15.50;2.15;;;36.40;25.00;;;;;;4950420;29;20152;-62
2022/07/03 03:16:15;;;;;;;14.93;2.78;;;36.30;25.00;;;;;;4950400;29;20445;-64
2022/07/03 03:18:42;;;;;;;16.65;3.53;;;36.20;25.00;;;;;;4950942;28;20158;-65
2022/07/03 03:21:18;;;;;;;17.38;3.17;;;36.10;25.20;;;;;;4951328;28;20587;-62
2022/07/03 03:23:54;;;;;;;8.38;2.72;;;36.30;28.50;;;;;;4950670;28;20604;-63
2022/07/03 03:26:22;;;;;;;17.73;2.92;;;35.90;25.20;;;;;;4950488;29;20454;-66
2022/07/03 03:28:50;;;;;;;13.93;2.90;;;35.90;25.40;;;;;;4966201;28;20069;-64
2022/07/03 03:31:18;;;;;;;14.52;2.42;;;35.90;25.50;;;;;;4950949;28;20087;-65
2022/07/03 03:33:47;;;;;;;18.38;3.97;;;35.70;25.40;;;;;;4949990;28;20083;-62
2022/07/03 03:36:18;;;;;;;19.38;3.55;;;35.70;25.30;;;;;;4951208;28;20087;-63
2022/07/03 03:38:47;;;;;;;19.42;3.38;;;35.50;25.20;;;;;;4951382;28;20082;-62
2022/07/03 03:41:13;;;;;;;18.25;3.65;;;35.30;25.30;;;;;;4951168;29;20079;-63
2022/07/03 03:43:40;;;;;;;28.00;4.32;;;35.20;25.50;;;;;;4950581;29;20078;-64
2022/07/03 03:46:06;;;;;;;27.92;4.90;;;35.10;25.40;;;;;;4950312;28;20079;-63
2022/07/03 03:48:33;;;;;;;27.55;5.45;;;35.10;25.10;;;;;;4950377;28;21001;-62
2022/07/03 03:51:01;;;;;;;34.47;4.43;;;35.00;25.80;;;;;;4950833;28;20083;-63
2022/07/03 03:53:28;;;;;;;27.23;5.38;;;34.90;25.20;;;;;;4949967;28;20090;-63
2022/07/03 03:56:06;;;;;;;23.45;4.93;;;34.80;25.20;;;;;;4948948;28;20071;-63
2022/07/03 03:58:34;;;;;;;29.80;4.38;;;34.70;25.10;;;;;;4949971;28;20093;-61
2022/07/03 04:01:02;;;;;;;26.58;4.45;;;34.60;25.30;;;;;;4949882;28;20107;-64
2022/07/03 04:03:30;;;;;;;19.05;3.95;;;34.60;25.40;;;;;;4950561;28;20555;-62
2022/07/03 04:05:57;;;;;;;19.85;3.38;;;34.50;25.30;;;;;;4950551;29;20075;-65
2022/07/03 04:08:26;;;;;;;22.85;3.35;;;34.50;25.40;;;;;;4950810;28;20198;-64
2022/07/03 04:10:53;;;;;;;19.65;3.22;;;34.40;25.40;;;;;;4950497;28;20082;-62
2022/07/03 04:13:19;;;;;;;18.15;2.95;;;34.40;25.30;;;;;;4950392;29;20137;-63
2022/07/03 04:15:47;;;;;;;23.20;3.30;;;34.40;25.20;;;;;;4952629;28;20070;-62
2022/07/03 04:18:14;;;;;;;17.58;3.47;;;34.30;25.80;;;;;;4954040;28;20090;-62
2022/07/03 04:20:41;;;;;;;8.35;2.15;;;34.30;25.40;;;;;;4954143;28;20078;-65
2022/07/03 04:23:07;;;;;;;8.38;2.58;;;34.20;25.60;;;;;;4953855;29;20075;-62
2022/07/03 04:25:33;;;;;;;18.13;2.67;;;34.20;25.00;;;;;;4954265;28;20078;-65
2022/07/03 04:28:00;;;;;;;17.83;2.58;;;34.20;24.60;;;;;;4954342;28;20141;-62
2022/07/03 04:30:26;;;;;;;13.75;2.30;;;34.10;24.40;;;;;;4953980;28;20529;-64
2022/07/03 04:32:53;;;;;;;17.45;2.53;;;34.00;24.40;;;;;;4953582;28;20129;-62
2022/07/03 04:35:19;;;;;;;18.83;2.60;;;34.00;24.10;;;;;;4953647;28;20094;-62
2022/07/03 04:37:46;;;;;;;21.25;3.05;;;33.90;24.10;;;;;;4953856;28;20071;-64
2022/07/03 04:40:13;;;;;;;20.83;2.38;;;33.90;24.00;;;;;;4953999;28;20530;-62
2022/07/03 04:42:40;;;;;;;11.77;2.10;;;33.80;24.20;;;;;;4953846;29;20114;-62
2022/07/03 04:45:07;;;;;;;87.97;7.72;;;33.70;24.40;;;;;;4952756;28;20141;-63
2022/07/03 04:47:34;;;;;;;6.55;2.22;;;33.60;24.40;;;;;;4953589;28;20075;-62
2022/07/03 04:50:00;;;;;;;16.98;2.30;;;33.50;24.00;;;;;;4954084;29;20074;-61
2022/07/03 04:52:27;;;;;;;11.38;2.47;;;33.50;23.60;;;;;;4953064;28;20099;-62
2022/07/03 04:54:53;;;;;;;9.68;2.20;;;33.40;23.30;;;;;;4954007;29;20469;-62
2022/07/03 04:57:20;;;;;;;10.55;1.85;;;33.40;23.10;;;;;;4951988;28;20114;-61
2022/07/03 04:59:46;;;;;;;8.23;1.88;;;33.30;22.90;;;;;;4953729;29;20121;-62
2022/07/03 05:02:13;;;;;;;10.25;2.03;;;33.30;22.90;;;;;;4952877;29;20081;-62
2022/07/03 05:04:39;;;;;;;13.95;2.63;;;33.20;22.90;;;;;;4952038;29;20087;-63
2022/07/03 05:07:05;;;;;;;9.80;2.08;;;33.00;22.60;;;;;;4954435;28;20075;-62
2022/07/03 05:09:32;;;;;;;9.63;2.10;;;33.00;22.50;;;;;;4953018;29;20078;-64
2022/07/03 05:11:58;;;;;;;8.98;2.25;;;32.90;22.50;;;;;;4952636;29;20067;-61
2022/07/03 05:14:25;;;;;;;13.68;2.47;;;32.90;22.10;;;;;;4953707;28;20101;-61
2022/07/03 05:16:51;;;;;;;58.83;4.00;;;32.80;21.60;;;;;;4953137;28;20559;-63
2022/07/03 05:19:17;;;;;;;12.20;2.33;;;32.70;21.80;;;;;;4953336;29;20441;-62
2022/07/03 05:21:44;;;;;;;9.80;3.60;;;32.70;22.10;;;;;;4967789;28;20459;-62
2022/07/03 05:24:10;;;;;;;11.63;2.30;;;32.80;21.90;;;;;;4952879;28;20090;-60
2022/07/03 05:26:36;;;;;;;5.78;1.63;;;32.70;21.90;;;;;;4968260;28;20097;-63
2022/07/03 05:29:03;;;;;;;8.82;2.03;;;32.60;21.80;;;;;;4953315;28;20093;-62
2022/07/03 05:31:29;;;;;;;8.88;1.85;;;32.60;21.80;;;;;;4953099;28;20079;-62
2022/07/03 05:33:55;;;;;;;16.15;2.45;;;32.60;21.90;;;;;;4952448;28;20141;-62
2022/07/03 05:36:22;;;;;;;8.70;1.80;;;32.60;21.90;;;;;;4952405;28;20094;-61
2022/07/03 05:41:34;;;;;;;13.90;2.10;;;32.60;22.00;;;;;;4954367;29;20495;-63
2022/07/03 05:44:01;;;;;;;9.88;2.30;;;32.60;21.60;;;;;;4954061;29;20110;-61
2022/07/03 05:46:27;;;;;;;11.60;2.40;;;32.50;21.70;;;;;;4951856;29;20491;-64
2022/07/03 05:48:53;;;;;;;12.15;2.08;;;32.50;21.30;;;;;;4951340;29;20077;-62
2022/07/03 05:51:20;;;;;;;9.18;1.88;;;32.50;21.10;;;;;;4952400;28;20087;-65
2022/07/03 05:53:46;;;;;;;9.40;2.00;;;32.40;21.10;;;;;;4952324;28;20526;-64
2022/07/03 05:56:12;;;;;;;9.95;2.53;;;32.40;21.40;;;;;;4952697;28;20609;-63
2022/07/03 05:58:41;;;;;;;12.45;2.33;;;32.40;21.50;;;;;;4951723;29;20153;-62
2022/07/03 06:01:07;;;;;;;10.35;1.83;;;32.40;21.60;;;;;;4951872;28;20130;-61
2022/07/03 06:03:34;;;;;;;11.45;1.60;;;32.50;21.60;;;;;;4951227;29;20079;-63
2022/07/03 06:06:00;;;;;;;9.90;1.90;;;32.50;21.10;;;;;;4936447;29;20451;-63
2022/07/03 06:08:27;;;;;;;7.93;2.20;;;32.50;21.00;;;;;;4920637;29;20082;-62
2022/07/03 06:10:54;;;;;;;7.35;2.60;;;32.40;21.00;;;;;;4952766;28;20098;-62
2022/07/03 06:13:20;;;;;;;9.77;2.70;;;32.40;21.10;;;;;;4952157;28;20095;-63
2022/07/03 06:15:47;;;;;;;7.53;2.20;;;32.30;20.90;;;;;;4936410;29;20092;-62
2022/07/03 06:18:13;;;;;;;10.50;2.15;;;32.20;20.90;;;;;;4952079;28;20093;-63
2022/07/03 06:20:40;;;;;;;5.35;1.80;;;32.20;21.30;;;;;;4952215;28;20081;-64
2022/07/03 06:23:06;;;;;;;4.90;1.70;;;32.20;20.90;;;;;;4951660;29;20110;-64
2022/07/03 06:25:32;;;;;;;9.15;1.80;;;32.10;20.70;;;;;;4952599;28;20090;-61
2022/07/03 06:27:59;;;;;;;8.20;1.45;;;32.20;20.90;;;;;;4952345;28;20062;-61
2022/07/03 06:30:25;;;;;;;16.02;1.65;;;32.10;20.80;;;;;;4951922;28;20066;-63
2022/07/03 06:32:51;;;;;;;8.25;1.50;;;32.10;20.90;;;;;;4951294;28;20105;-65
2022/07/03 06:35:18;;;;;;;12.75;1.70;;;32.10;20.80;;;;;;4936060;29;20624;-62
2022/07/03 06:37:44;;;;;;;12.60;1.75;;;32.10;21.00;;;;;;4933727;28;20121;-63
2022/07/03 06:40:11;;;;;;;12.23;1.52;;;32.20;20.90;;;;;;4952420;29;20082;-62
2022/07/03 06:42:37;;;;;;;8.35;1.80;;;32.20;20.80;;;;;;4951368;28;20074;-61
2022/07/03 06:45:04;;;;;;;10.23;2.00;;;32.20;20.60;;;;;;4935278;29;20162;-61
2022/07/03 06:47:30;;;;;;;5.35;1.17;;;32.20;20.50;;;;;;4935285;29;20173;-61
2022/07/03 06:49:57;;;;;;;15.15;2.13;;;32.10;20.60;;;;;;4951643;28;20075;-62
2022/07/03 06:52:23;;;;;;;10.98;1.80;;;32.20;20.30;;;;;;4951580;28;20078;-62
2022/07/03 06:54:49;;;;;;;7.65;1.60;;;32.20;20.20;;;;;;4951827;28;20286;-63
2022/07/03 06:57:16;;;;;;;15.68;2.20;;;32.10;19.90;;;;;;4935780;29;20066;-62
2022/07/03 06:59:42;;;;;;;7.85;2.45;;;32.20;19.80;;;;;;4948402;29;20085;-64
2022/07/03 07:02:08;;;;;;;10.63;2.75;;;32.10;19.80;;;;;;4950801;29;20122;-66
2022/07/03 07:04:35;;;;;;;9.63;3.47;;;32.30;20.00;;;;;;4951412;28;20778;-63
2022/07/03 07:07:02;;;;;;;7.82;3.40;;;32.50;20.00;;;;;;4950444;29;20074;-67
2022/07/03 07:09:28;;;;;;;13.82;3.75;;;32.60;19.80;;;;;;4951013;29;20075;-67
2022/07/03 07:11:55;;;;;;;9.27;4.18;;;32.60;19.50;;;;;;4950032;29;20081;-66
2022/07/03 07:14:21;;;;;;;10.80;4.03;;;32.50;19.50;;;;;;4950786;28;20575;-65
2022/07/03 07:16:48;;;;;;;10.90;5.03;;;32.50;19.40;;;;;;4950895;28;20573;-65
2022/07/03 07:19:14;;;;;;;11.07;4.00;;;32.40;19.60;;;;;;4950606;29;20094;-63
2022/07/03 07:21:45;;;;;;;13.15;2.47;;;32.40;19.70;;;;;;4947137;28;20480;-66
2022/07/03 07:24:15;;;;;;;7.35;1.65;;;32.40;19.60;;;;;;4950035;29;20165;-64
2022/07/03 07:26:42;;;;;;;7.68;2.00;;;32.40;19.50;;;;;;4950196;29;20087;-63
2022/07/03 07:29:09;;;;;;;13.70;1.58;;;32.30;19.40;;;;;;4952194;29;20095;-65
2022/07/03 07:31:35;;;;;;;5.60;1.20;;;32.20;19.50;;;;;;4951489;29;20157;-66
2022/07/03 07:34:08;;;;;;;4.70;1.70;;;32.10;19.30;;;;;;4950463;29;20087;-67
2022/07/03 07:36:35;;;;;;;8.68;2.17;;;32.00;19.40;;;;;;4951251;29;20162;-67
2022/07/03 07:39:04;;;;;;;6.00;1.60;;;32.00;19.60;;;;;;4950860;29;20071;-65
2022/07/03 07:41:33;;;;;;;6.55;1.33;;;32.00;19.60;;;;;;4950854;29;20437;-65
2022/07/03 07:44:00;;;;;;;5.05;1.15;;;31.90;19.40;;;;;;4950018;28;20038;-63
2022/07/03 07:46:26;;;;;;;6.85;1.20;;;32.00;19.50;;;;;;4949754;29;20121;-65
2022/07/03 07:48:53;;;;;;;8.43;1.42;;;32.00;19.20;;;;;;4950241;29;20074;-65
2022/07/03 07:51:20;;;;;;;7.72;1.55;;;31.90;19.30;;;;;;4948813;28;20230;-63
2022/07/03 07:53:46;;;;;;;10.52;2.47;;;31.90;19.30;;;;;;4949307;28;20094;-68
2022/07/03 07:56:13;;;;;;;4.75;1.30;;;32.00;19.50;;;;;;4949823;29;20157;-64
2022/07/03 07:58:39;;;;;;;7.85;0.98;;;31.80;19.30;;;;;;4949658;29;20098;-65
2022/07/03 08:06:35;;;;;;;4.15;0.95;;;31.70;19.20;;;;;;4950792;29;21155;-62
2022/07/03 08:09:02;;;;;;;5.68;1.10;;;31.50;19.10;;;;;;4941462;29;20125;-63
2022/07/03 08:11:29;;;;;;;6.85;1.30;;;31.50;19.20;;;;;;4933769;29;20114;-62
2022/07/03 08:13:55;;;;;;;3.63;0.80;;;31.50;18.90;;;;;;4949696;29;20153;-63
2022/07/03 08:16:21;;;;;;;5.07;1.30;;;31.50;18.80;;;;;;4948602;28;20093;-65
2022/07/03 08:18:48;;;;;;;4.57;1.00;;;31.50;19.00;;;;;;4949299;28;20066;-64
2022/07/03 08:21:14;;;;;;;5.75;1.35;;;31.40;19.10;;;;;;4950490;29;20076;-63
2022/07/03 08:23:41;;;;;;;6.25;1.00;;;31.40;19.20;;;;;;4949017;29;20522;-64
2022/07/03 08:26:07;;;;;;;6.07;0.95;;;31.30;19.30;;;;;;4948818;29;20086;-65
2022/07/03 08:28:33;;;;;;;3.80;0.95;;;31.40;19.00;;;;;;4948436;29;20457;-62
2022/07/03 08:31:00;;;;;;;8.73;1.10;;;31.30;18.80;;;;;;4946985;29;20657;-63
2022/07/03 08:33:26;;;;;;;4.78;1.20;;;31.30;18.70;;;;;;4949157;28;20086;-63
2022/07/03 08:35:52;;;;;;;6.88;1.45;;;31.30;18.40;;;;;;4948218;28;20082;-64
2022/07/03 08:38:19;;;;;;;3.65;1.00;;;31.30;18.50;;;;;;4949709;28;20170;-63
2022/07/03 08:40:47;;;;;;;2.88;0.80;;;31.30;18.40;;;;;;4946077;29;20082;-62
2022/07/03 08:43:14;;;;;;;3.25;0.90;;;31.30;18.60;;;;;;4949334;28;20161;-61
2022/07/03 08:45:41;;;;;;;9.88;1.30;;;31.30;18.40;;;;;;4949270;29;20079;-62
2022/07/03 08:48:08;;;;;;;4.75;0.90;;;31.20;18.10;;;;;;4948963;29;20079;-62
2022/07/03 08:50:37;;;;;;;2.60;0.70;;;31.20;18.10;;;;;;4949812;29;20631;-63
2022/07/03 08:53:03;;;;;;;4.57;0.82;;;31.30;17.90;;;;;;4947637;29;20855;-63
2022/07/03 08:55:30;;;;;;;2.50;0.50;;;31.20;17.50;;;;;;4932381;29;20079;-63
2022/07/03 08:57:58;;;;;;;8.55;0.98;;;31.20;17.50;;;;;;4947875;29;20088;-62
2022/07/03 09:00:26;;;;;;;2.70;0.80;;;31.20;17.30;;;;;;4947812;29;20576;-62
2022/07/03 09:02:54;;;;;;;3.58;0.75;;;31.20;17.70;;;;;;4966116;28;20078;-63
2022/07/03 09:05:20;;;;;;;3.70;0.73;;;31.20;17.60;;;;;;4951802;28;20173;-64
2022/07/03 09:07:47;;;;;;;4.40;0.85;;;31.10;17.60;;;;;;4951333;29;20508;-65
2022/07/03 09:10:15;;;;;;;2.75;0.70;;;31.00;17.80;;;;;;4951729;29;20125;-63
2022/07/03 09:12:47;;;;;;;1.52;0.70;;;31.00;17.60;;;;;;4952173;29;20090;-63
2022/07/03 09:15:14;;;;;;;2.13;0.90;;;31.00;17.50;;;;;;4935211;29;20178;-63
2022/07/03 09:17:55;;;;;;;3.60;0.77;;;30.90;17.20;;;;;;4951847;29;20076;-64
2022/07/03 09:20:30;;;;;;;4.80;1.05;;;30.80;17.40;;;;;;4922482;29;20080;-67
2022/07/03 09:23:12;;;;;;;1.50;0.93;;;30.70;17.20;;;;;;4951174;29;20173;-66
2022/07/03 09:25:59;;;;;;;5.60;1.00;;;30.70;17.40;;;;;;4952562;29;20165;-63
2022/07/03 09:28:51;;;;;;;4.15;1.00;;;30.80;17.50;;;;;;4951237;29;20083;-64
2022/07/03 09:31:21;;;;;;;5.63;1.42;;;30.70;17.40;;;;;;4950498;29;20158;-63
2022/07/03 09:33:55;;;;;;;2.75;1.40;;;30.70;17.50;;;;;;4951101;29;20978;-61
2022/07/03 09:36:40;;;;;;;2.60;1.20;;;30.70;17.80;;;;;;4951880;29;20085;-64
2022/07/03 09:39:27;;;;;;;4.53;1.17;;;30.70;17.80;;;;;;4951534;29;20071;-60
2022/07/03 09:41:53;;;;;;;;;;;30.60;17.10;;;;;;4951368;29;20078;-62
2022/07/03 09:44:48;;;;;;;5.50;4.03;;;30.60;17.10;;;;;;4952418;28;20456;-62
2022/07/03 09:47:20;;;;;;;6.97;3.78;;;30.60;16.70;;;;;;4896608;29;20155;-62
2022/07/03 09:50:02;;;;;;;3.72;1.75;;;30.60;16.90;;;;;;4910081;29;20075;-62
2022/07/03 09:52:38;;;;;;;3.10;1.38;;;30.60;16.20;;;;;;4898927;29;20182;-65
2022/07/03 09:55:10;;;;;;;3.00;1.60;;;30.60;16.30;;;;;;4896614;29;20076;-61
2022/07/03 09:58:02;;;;;;;4.20;1.35;;;30.60;16.00;;;;;;4908819;29;20521;-63
2022/07/03 10:00:31;;;;;;;6.72;2.50;;;30.50;15.90;;;;;;4887430;29;20100;-61
2022/07/03 10:03:09;;;;;;;6.43;3.70;;;30.50;15.90;;;;;;4910737;29;20135;-61
2022/07/03 10:05:42;;;;;;;8.52;4.15;;;30.50;15.80;;;;;;4908678;29;20080;-63
2022/07/03 10:08:17;;;;;;;6.03;3.03;;;30.40;15.70;;;;;;4895347;29;20084;-65
2022/07/03 10:10:46;;;;;;;9.55;1.38;;;30.40;16.00;;;;;;4895017;29;20118;-62
2022/07/03 10:13:13;;;;;;;7.07;1.50;;;30.40;15.60;;;;;;4895999;29;20592;-63
2022/07/03 10:15:41;;;;;;;4.32;1.30;;;30.30;15.80;;;;;;4896002;29;20095;-63
2022/07/03 10:18:10;;;;;;;3.63;1.20;;;30.40;15.70;;;;;;4896077;29;20541;-64
2022/07/03 10:20:39;;;;;;;2.03;0.60;;;30.30;15.70;;;;;;4895857;29;20160;-63
2022/07/03 10:23:06;;;;;;;2.97;0.63;;;30.30;15.60;;;;;;4922572;29;20174;-65
2022/07/03 10:25:33;;;;;;;1.85;0.43;;;30.30;15.60;;;;;;4950694;28;20092;-64
2022/07/03 10:28:01;;;;;;;1.05;0.60;;;30.30;15.50;;;;;;4950529;28;20076;-66
2022/07/03 10:30:28;;;;;;;5.95;0.90;;;30.30;15.50;;;;;;4951113;28;20213;-64
2022/07/03 10:32:56;;;;;;;1.92;0.75;;;30.30;15.70;;;;;;4950711;29;20087;-63
2022/07/03 10:35:33;;;;;;;1.80;0.77;;;30.30;15.60;;;;;;4951187;29;20131;-64
2022/07/03 10:38:02;;;;;;;2.10;0.80;;;30.30;15.40;;;;;;4951209;29;20067;-63
2022/07/03 10:46:21;;;;;;;3.67;0.70;;;30.00;15.40;;;;;;4950479;29;21672;-66
2022/07/03 10:49:12;;;;;;;3.78;0.90;;;30.00;15.70;;;;;;4951389;29;20105;-64
2022/07/03 10:51:47;;;;;;;4.65;0.65;;;30.00;15.90;;;;;;4949296;29;21295;-64
2022/07/03 10:54:25;;;;;;;3.20;0.70;;;29.90;15.40;;;;;;4951212;28;20087;-66
2022/07/03 10:57:00;;;;;;;4.95;2.13;;;29.90;15.70;;;;;;4949781;28;20066;-64
2022/07/03 10:59:42;;;;;;;7.37;2.90;;;29.90;16.00;;;;;;4950532;28;20113;-66
2022/07/03 11:02:38;;;;;;;11.10;3.40;;;29.90;16.10;;;;;;4949228;29;20522;-65
2022/07/03 11:05:20;;;;;;;6.63;3.08;;;29.70;15.90;;;;;;4949659;29;20423;-63
2022/07/03 11:07:54;;;;;;;6.32;3.10;;;29.70;16.00;;;;;;4949712;29;20135;-64
2022/07/03 11:10:24;;;;;;;5.68;2.35;;;29.60;16.20;;;;;;4950345;28;20075;-64
2022/07/03 11:12:57;;;;;;;3.40;2.03;;;29.50;16.10;;;;;;4950144;28;20096;-64
2022/07/03 11:15:29;;;;;;;5.20;1.67;;;29.60;16.30;;;;;;4948968;29;20077;-66
2022/07/03 11:18:16;;;;;;;6.45;1.83;;;29.60;16.50;;;;;;4948291;28;20590;-64
2022/07/03 11:20:42;;;;;;;3.53;1.38;;;29.50;16.20;;;;;;4949536;28;20071;-65
2022/07/03 11:23:26;;;;;;;1.55;0.77;;;29.50;16.50;;;;;;4950225;28;20088;-66
2022/07/03 11:26:19;;;;;;;3.28;0.80;;;29.50;16.40;;;;;;4949133;28;20087;-67
2022/07/03 11:28:45;;;;;;;3.63;0.63;;;29.40;16.70;;;;;;4948564;29;20087;-67
2022/07/03 11:31:15;;;;;;;6.88;0.82;;;29.40;16.40;;;;;;4950664;29;20076;-64
2022/07/03 11:33:45;;;;;;;2.80;0.70;;;29.40;16.90;;;;;;4949674;28;20092;-64
2022/07/03 11:36:33;;;;;;;5.40;0.55;;;29.30;16.70;;;;;;4950186;29;20174;-67
2022/07/03 11:39:00;;;;;;;4.65;0.82;;;29.30;16.80;;;;;;4948761;29;20969;-64
2022/07/03 11:41:34;;;;;;;3.58;0.60;;;29.20;16.80;;;;;;4950680;28;20064;-64
2022/07/03 11:44:06;;;;;;;3.30;0.70;;;29.20;16.80;;;;;;4949931;29;20860;-64
2022/07/03 11:46:35;;;;;;;5.80;1.08;;;29.10;16.70;;;;;;4948380;29;20195;-64
2022/07/03 11:49:18;;;;;;;4.78;2.13;;;29.10;16.60;;;;;;4932039;29;20099;-64
2022/07/03 11:51:56;;;;;;;8.32;3.13;;;29.10;16.80;;;;;;4950107;28;20079;-64
2022/07/03 11:54:23;;;;;;;8.38;2.60;;;29.00;16.90;;;;;;4949437;28;20238;-64
2022/07/03 11:56:49;;;;;;;7.57;2.75;;;29.00;17.00;;;;;;4950121;29;20122;-63
2022/07/03 11:59:16;;;;;;;7.63;3.40;;;29.00;17.20;;;;;;4951153;28;20109;-64
2022/07/03 12:01:43;;;;;;;7.20;3.47;;;29.00;17.20;;;;;;4932312;29;20083;-63
2022/07/03 12:04:18;;;;;;;5.07;2.10;;;29.00;17.20;;;;;;4947904;28;20076;-66
2022/07/03 12:06:51;;;;;;;2.67;1.00;;;29.00;17.30;;;;;;4948054;29;20079;-64
2022/07/03 12:09:26;;;;;;;4.10;0.95;;;29.00;17.30;;;;;;4949006;29;20080;-64
2022/07/03 12:11:54;;;;;;;4.70;0.95;;;28.80;19.00;;;;;;4949816;29;20444;-64
2022/07/03 12:14:56;;;;;;;6.78;1.08;;;28.80;19.20;;;;;;4949099;28;20119;-65
2022/07/03 12:17:24;;;;;;;6.55;1.10;;;28.60;19.00;;;;;;4948326;29;20193;-64
2022/07/03 12:19:58;;;;;;;2.60;0.95;;;28.40;19.20;;;;;;4948593;29;20442;-64
2022/07/03 12:22:31;;;;;;;4.28;1.00;;;28.40;18.70;;;;;;4949658;28;20436;-64
2022/07/03 12:25:09;;;;;;;1.88;0.90;;;28.40;18.90;;;;;;4948874;29;20092;-65
2022/07/03 12:27:40;;;;;;;5.88;1.00;;;28.40;18.70;;;;;;4949941;29;20071;-66
2022/07/03 12:30:09;;;;;;;5.95;1.20;;;28.30;18.90;;;;;;4947765;29;20080;-64
2022/07/03 12:32:39;;;;;;;5.60;1.42;;;28.30;18.80;;;;;;4949496;29;20075;-66
2022/07/03 12:35:06;;;;;;;2.25;1.17;;;28.30;19.10;;;;;;4949807;28;20076;-64
2022/07/03 12:37:40;;;;;;;5.07;1.10;;;28.30;19.30;;;;;;4950016;28;20111;-66
2022/07/03 12:40:08;;;;;;;4.47;1.10;;;28.20;20.10;;;;;;4954612;29;20068;-64
2022/07/03 12:42:52;;;;;;;4.85;1.30;;;28.20;19.50;;;;;;4936736;29;20072;-65
2022/07/03 12:45:24;;;;;;;6.00;1.23;;;28.30;19.90;;;;;;4952068;29;20521;-67
2022/07/03 12:48:06;;;;;;;6.43;1.30;;;28.20;21.30;;;;;;4951285;29;20107;-64
2022/07/03 12:50:47;;;;;;;10.63;1.52;;;28.00;21.00;;;;;;4952580;28;20074;-64
2022/07/03 12:53:33;;;;;;;4.65;1.40;;;28.00;21.00;;;;;;4953982;28;20091;-64
2022/07/03 12:56:04;;;;;;;8.32;1.48;;;28.00;21.10;;;;;;4952285;29;20092;-64
2022/07/03 13:01:36;;;;;;;5.43;1.48;;;27.90;21.50;;;;;;4953579;29;20552;-63
2022/07/03 13:04:03;;;;;;;8.32;1.67;;;27.90;21.70;;;;;;4950458;29;20087;-62
2022/07/03 13:06:29;;;;;;;7.88;1.60;;;28.00;21.70;;;;;;4964967;28;20116;-65
2022/07/03 13:09:01;;;;;;;13.32;2.13;;;28.00;22.00;;;;;;4952559;28;20075;-64
2022/07/03 13:11:37;;;;;;;6.05;1.50;;;27.90;22.00;;;;;;4952289;29;20125;-66
2022/07/03 13:14:11;;;;;;;12.00;1.42;;;27.80;22.40;;;;;;4951763;29;20150;-64
2022/07/03 13:16:49;;;;;;;9.52;1.30;;;27.80;22.70;;;;;;4951790;29;20482;-67
2022/07/03 13:19:23;;;;;;;10.15;1.70;;;27.80;22.80;;;;;;4951753;28;20231;-66
2022/07/03 13:21:52;;;;;;;8.80;1.33;;;27.80;22.50;;;;;;4952509;28;20071;-66
2022/07/03 13:24:19;;;;;;;12.10;1.30;;;27.70;21.50;;;;;;4950621;29;20127;-66